Time;durP1;ratioP1;P1;durP2;ratioP2;P2;SDS_P1;SDS_P2;PMS_P1;PMS_P2;Temp;Humidity;BMP_temperature;BMP_pressure;BME280_temperature;BME280_humidity;BME280_pressure;Samples;Min_cycle;Max_cycle;Signal;HPM_P1;HPM_P2
2023/05/07 00:01:17;;;;;;;11.70;8.88;;;;;;;12.54;76.92;95276.91;4983209;28;20258;-63
2023/05/07 00:03:45;;;;;;;10.57;8.07;;;;;;;12.44;76.51;95275.59;4983017;28;20212;-63
2023/05/07 00:06:12;;;;;;;12.05;7.72;;;;;;;12.35;76.52;95278.50;4980170;28;20838;-63
2023/05/07 00:08:39;;;;;;;8.77;6.50;;;;;;;12.36;76.81;95275.06;4982171;28;22667;-64
2023/05/07 00:11:05;;;;;;;7.45;6.90;;;;;;;12.38;76.38;95273.25;4982433;28;20429;-64
2023/05/07 00:13:35;;;;;;;6.50;5.90;;;;;;;12.42;75.89;95264.63;4981931;28;20657;-64
2023/05/07 00:16:02;;;;;;;6.75;6.13;;;;;;;12.49;75.77;95266.06;4981771;28;20925;-65
2023/05/07 00:18:28;;;;;;;6.90;6.20;;;;;;;12.47;76.12;95260.19;4981121;28;20207;-63
2023/05/07 00:20:57;;;;;;;6.80;6.30;;;;;;;12.40;76.50;95262.13;4985508;28;20211;-62
2023/05/07 00:23:24;;;;;;;7.00;6.32;;;;;;;12.18;77.35;95254.44;4984331;28;20294;-64
2023/05/07 00:25:50;;;;;;;7.43;6.72;;;;;;;12.22;77.03;95257.72;4984314;28;20215;-63
2023/05/07 00:28:17;;;;;;;6.88;6.28;;;;;;;12.35;76.94;95258.94;4985388;28;20357;-64
2023/05/07 00:30:44;;;;;;;7.00;6.50;;;;;;;12.33;76.78;95268.34;4985314;28;20298;-64
2023/05/07 00:33:10;;;;;;;9.48;7.20;;;;;;;12.32;76.66;95264.16;4986562;28;20305;-62
2023/05/07 00:35:37;;;;;;;7.72;7.05;;;;;;;12.35;76.76;95263.22;4984478;28;20207;-64
2023/05/07 00:38:05;;;;;;;7.68;6.95;;;;;;;12.35;77.20;95265.75;4984180;28;20227;-65
2023/05/07 00:40:32;;;;;;;9.50;7.55;;;;;;;12.33;77.02;95265.81;4985378;28;21123;-64
2023/05/07 00:42:59;;;;;;;11.18;7.50;;;;;;;12.34;77.13;95266.66;4984121;28;20262;-65
2023/05/07 00:45:27;;;;;;;7.55;6.85;;;;;;;12.12;77.56;95259.78;4985580;28;20211;-64
2023/05/07 00:47:55;;;;;;;6.93;6.32;;;;;;;12.19;77.70;95271.41;4981181;28;20204;-65
2023/05/07 00:50:22;;;;;;;7.50;6.80;;;;;;;12.16;77.70;95274.06;4981709;28;20381;-64
2023/05/07 00:52:49;;;;;;;8.43;7.72;;;;;;;12.00;78.31;95267.03;4985392;28;20330;-64
2023/05/07 00:55:17;;;;;;;12.52;7.38;;;;;;;11.94;78.84;95278.25;4984156;28;20243;-64
2023/05/07 00:57:45;;;;;;;7.85;7.18;;;;;;;11.87;78.49;95266.66;4987068;28;20299;-64
2023/05/07 01:00:13;;;;;;;9.45;7.35;;;;;;;11.96;78.23;95271.41;4983888;28;20291;-64
2023/05/07 01:02:40;;;;;;;8.55;7.70;;;;;;;11.93;78.48;95266.41;4983210;28;20212;-65
2023/05/07 01:05:09;;;;;;;10.68;8.00;;;;;;;11.94;77.94;95278.25;4984205;28;20617;-64
2023/05/07 01:07:37;;;;;;;9.13;7.88;;;;;;;11.95;78.13;95271.44;4984195;28;20218;-63
2023/05/07 01:10:05;;;;;;;10.80;7.90;;;;;;;11.83;77.72;95254.91;4985446;28;20310;-65
2023/05/07 01:12:34;;;;;;;9.65;7.43;;;;;;;11.83;78.44;95278.66;4982787;28;20298;-64
2023/05/07 01:15:01;;;;;;;13.18;7.43;;;;;;;11.79;78.60;95273.72;4982628;28;20206;-63
2023/05/07 01:17:28;;;;;;;11.48;7.70;;;;;;;11.78;78.74;95274.59;4978917;28;21649;-64
2023/05/07 01:19:55;;;;;;;8.63;7.10;;;;;;;11.78;78.55;95277.97;4984691;28;20354;-65
2023/05/07 01:22:31;;;;;;;8.82;7.95;;;;;;;11.77;78.48;95265.28;4983734;28;20517;-65
2023/05/07 01:24:59;;;;;;;13.13;7.80;;;;;;;11.70;78.08;95274.00;4983468;28;20239;-64
2023/05/07 01:27:26;;;;;;;7.82;7.10;;;;;;;11.63;78.96;95267.47;4987183;28;20256;-64
2023/05/07 01:29:53;;;;;;;8.90;7.85;;;;;;;11.61;79.15;95274.31;4980797;28;20678;-63
2023/05/07 01:32:25;;;;;;;13.10;7.53;;;;;;;11.64;78.97;95274.19;4982499;28;21984;-63
2023/05/07 01:34:53;;;;;;;10.32;8.88;;;;;;;11.62;78.82;95281.06;4983667;28;20219;-65
2023/05/07 01:37:21;;;;;;;11.23;8.98;;;;;;;11.64;79.13;95269.09;4983817;28;20216;-61
2023/05/07 01:39:49;;;;;;;20.50;8.35;;;;;;;11.55;79.13;95276.19;4986056;28;20297;-63
2023/05/07 01:42:16;;;;;;;10.10;9.00;;;;;;;11.54;79.36;95261.81;4983553;28;20289;-63
2023/05/07 01:44:43;;;;;;;10.18;8.07;;;;;;;11.58;78.91;95257.44;4979659;28;20287;-65
2023/05/07 01:47:10;;;;;;;9.35;8.45;;;;;;;11.50;79.29;95252.59;4983003;28;20218;-65
2023/05/07 01:49:37;;;;;;;9.82;7.85;;;;;;;11.49;79.46;95257.75;4981154;28;20767;-64
2023/05/07 01:52:05;;;;;;;8.35;7.57;;;;;;;11.36;79.77;95228.53;4982971;28;22239;-63
2023/05/07 01:54:31;;;;;;;12.48;7.85;;;;;;;11.52;79.25;95255.94;4979850;28;20482;-63
2023/05/07 01:56:59;;;;;;;11.48;8.65;;;;;;;11.52;79.44;95250.84;4981292;28;20301;-63
2023/05/07 01:59:26;;;;;;;8.63;7.82;;;;;;;11.55;79.04;95245.66;4983723;28;20279;-64
2023/05/07 02:01:53;;;;;;;8.48;7.63;;;;;;;11.48;79.49;95249.28;4983648;28;21063;-62
2023/05/07 02:04:19;;;;;;;10.90;8.10;;;;;;;11.51;78.89;95244.09;4984220;28;22210;-64
2023/05/07 02:06:46;;;;;;;12.27;7.75;;;;;;;11.34;79.79;95243.84;4985308;28;20291;-63
2023/05/07 02:09:14;;;;;;;9.48;8.30;;;;;;;11.35;79.67;95242.94;4982060;28;20309;-63
2023/05/07 02:11:41;;;;;;;10.10;7.65;;;;;;;11.32;79.76;95237.13;4983996;28;20208;-64
2023/05/07 02:14:09;;;;;;;9.40;8.60;;;;;;;11.34;80.12;95236.19;4985267;28;20226;-64
2023/05/07 02:16:36;;;;;;;10.43;8.05;;;;;;;11.32;80.05;95234.59;4983313;28;20999;-64
2023/05/07 02:19:03;;;;;;;10.13;9.23;;;;;;;11.30;79.99;95232.09;4982384;28;20286;-64
2023/05/07 02:21:30;;;;;;;9.75;8.90;;;;;;;11.33;79.90;95232.00;4983332;28;20227;-64
2023/05/07 02:23:56;;;;;;;10.25;9.27;;;;;;;11.28;79.94;95226.22;4982927;28;20218;-63
2023/05/07 02:26:23;;;;;;;13.38;9.88;;;;;;;11.22;80.35;95234.88;4981582;28;20319;-64
2023/05/07 02:28:50;;;;;;;8.98;8.10;;;;;;;11.24;80.12;95234.84;4979882;28;20373;-66
2023/05/07 02:31:18;;;;;;;9.02;8.23;;;;;;;11.25;80.31;95236.50;4980401;28;21722;-64
2023/05/07 02:33:45;;;;;;;8.68;7.88;;;;;;;11.22;80.42;95234.06;4983963;28;20212;-65
2023/05/07 02:36:13;;;;;;;10.82;8.27;;;;;;;11.18;80.28;95235.03;4981009;28;20211;-65
2023/05/07 02:38:40;;;;;;;11.95;9.00;;;;;;;11.12;80.51;95227.63;4979520;28;20681;-63
2023/05/07 02:41:06;;;;;;;9.68;8.27;;;;;;;11.18;80.17;95240.94;4980819;28;20295;-63
2023/05/07 02:43:33;;;;;;;9.00;8.13;;;;;;;11.27;79.92;95249.16;4980262;28;20290;-63
2023/05/07 02:46:04;;;;;;;11.73;8.60;;;;;;;11.24;79.86;95240.75;4982584;28;20230;-63
2023/05/07 02:48:33;;;;;;;15.13;9.60;;;;;;;11.28;79.49;95236.41;4981188;28;20212;-65
2023/05/07 02:51:00;;;;;;;9.38;8.18;;;;;;;11.22;79.79;95237.44;4983184;28;20231;-64
2023/05/07 02:53:27;;;;;;;10.50;8.88;;;;;;;11.18;80.08;95233.31;4982397;28;20706;-64
2023/05/07 02:55:53;;;;;;;9.52;8.23;;;;;;;11.14;79.87;95239.38;4981070;28;20334;-63
2023/05/07 02:58:20;;;;;;;10.13;8.15;;;;;;;11.13;79.85;95242.84;4983191;28;20198;-64
2023/05/07 03:00:47;;;;;;;10.90;8.88;;;;;;;11.05;80.17;95249.03;4981677;28;20318;-64
2023/05/07 03:03:14;;;;;;;16.20;9.95;;;;;;;11.02;80.58;95254.22;4982536;28;23317;-65
2023/05/07 03:05:42;;;;;;;9.95;8.98;;;;;;;11.00;80.37;95255.97;4982555;28;20562;-64
2023/05/07 03:08:09;;;;;;;10.73;9.10;;;;;;;11.13;79.74;95257.28;4983052;28;20317;-64
2023/05/07 03:10:36;;;;;;;9.13;8.27;;;;;;;11.13;79.38;95254.72;4983230;28;20305;-65
2023/05/07 03:13:03;;;;;;;10.27;8.77;;;;;;;11.08;79.62;95256.56;4980087;28;20910;-64
2023/05/07 03:15:30;;;;;;;15.82;8.80;;;;;;;11.06;79.85;95260.88;4981841;28;20764;-64
2023/05/07 03:17:57;;;;;;;10.60;9.35;;;;;;;11.16;79.54;95262.22;4983651;28;20200;-64
2023/05/07 03:20:23;;;;;;;12.27;8.95;;;;;;;11.12;79.40;95258.16;4984496;28;20291;-63
2023/05/07 03:22:51;;;;;;;10.23;9.20;;;;;;;11.14;79.30;95264.81;4983135;28;20334;-64
2023/05/07 03:25:18;;;;;;;9.15;7.93;;;;;;;11.12;79.30;95253.06;4986027;28;20869;-63
2023/05/07 03:27:45;;;;;;;10.43;8.38;;;;;;;11.08;79.69;95266.75;4984431;28;21462;-63
2023/05/07 03:30:13;;;;;;;8.57;7.78;;;;;;;11.08;79.83;95271.84;4983443;28;20352;-64
2023/05/07 03:32:40;;;;;;;11.85;7.90;;;;;;;11.18;79.48;95256.22;4983593;28;20204;-62
2023/05/07 03:35:07;;;;;;;9.85;7.82;;;;;;;11.40;78.88;95263.13;4984653;28;20219;-63
2023/05/07 03:37:34;;;;;;;7.63;7.03;;;;;;;11.62;78.28;95263.25;4982708;28;20220;-64
2023/05/07 03:40:02;;;;;;;8.98;7.55;;;;;;;11.73;77.58;95268.78;4982441;28;20293;-63
2023/05/07 03:42:29;;;;;;;7.70;7.10;;;;;;;11.68;77.68;95278.28;4983295;28;20214;-62
2023/05/07 03:44:56;;;;;;;10.57;7.65;;;;;;;12.00;75.77;95280.59;4984232;28;20769;-64
2023/05/07 03:47:23;;;;;;;8.18;7.40;;;;;;;12.13;75.12;95279.25;4982032;28;22223;-63
2023/05/07 03:49:50;;;;;;;7.18;6.63;;;;;;;12.19;74.60;95268.84;4983081;28;20297;-63
2023/05/07 03:52:22;;;;;;;8.45;7.82;;;;;;;12.34;73.21;95284.47;4981162;28;20219;-64
2023/05/07 03:54:49;;;;;;;8.07;7.28;;;;;;;12.29;73.40;95286.38;4985051;28;20207;-63
2023/05/07 03:57:17;;;;;;;8.20;7.40;;;;;;;12.27;73.76;95282.16;4986410;28;20679;-63
2023/05/07 03:59:44;;;;;;;7.35;6.72;;;;;;;12.24;73.20;95277.16;4987884;28;20294;-64
2023/05/07 04:02:10;;;;;;;14.90;7.43;;;;;;;12.44;73.32;95283.22;4984839;28;20270;-64
2023/05/07 04:04:37;;;;;;;10.90;7.38;;;;;;;12.91;72.82;95300.09;4987969;28;20298;-64
2023/05/07 04:07:04;;;;;;;10.57;7.70;;;;;;;13.78;69.22;95295.78;4985409;28;20689;-64
2023/05/07 04:09:30;;;;;;;9.45;7.03;;;;;;;14.39;67.30;95296.50;4983707;28;20229;-64
2023/05/07 04:11:57;;;;;;;6.68;6.07;;;;;;;15.14;65.21;95295.63;4987741;28;21631;-64
2023/05/07 04:14:25;;;;;;;7.07;6.47;;;;;;;15.70;63.65;95305.72;4986004;28;20213;-65
2023/05/07 04:16:52;;;;;;;7.18;5.90;;;;;;;16.20;61.51;95305.72;4986001;28;20298;-65
2023/05/07 04:19:18;;;;;;;7.10;6.45;;;;;;;16.63;59.80;95312.00;4985581;28;20336;-65
2023/05/07 04:21:45;;;;;;;9.93;6.13;;;;;;;16.67;59.16;95313.50;4987159;28;20290;-65
2023/05/07 04:24:12;;;;;;;6.57;6.10;;;;;;;17.25;57.69;95319.78;4984238;28;20306;-66
2023/05/07 04:26:40;;;;;;;9.38;6.93;;;;;;;17.66;56.37;95314.91;4986862;28;20235;-67
2023/05/07 04:29:06;;;;;;;7.00;6.28;;;;;;;17.90;55.63;95312.66;4984173;28;20324;-65
2023/05/07 04:31:34;;;;;;;6.95;6.05;;;;;;;18.10;54.63;95320.03;4988033;28;20327;-64
2023/05/07 04:34:01;;;;;;;10.40;6.78;;;;;;;18.47;53.67;95317.84;4986368;28;20211;-65
2023/05/07 04:36:29;;;;;;;7.43;6.30;;;;;;;18.90;52.17;95314.31;4986595;28;20195;-66
2023/05/07 04:38:56;;;;;;;7.45;6.85;;;;;;;19.54;51.07;95320.59;4984353;28;21114;-65
2023/05/07 04:41:22;;;;;;;7.50;6.80;;;;;;;20.28;49.10;95317.38;4985370;28;20338;-65
2023/05/07 04:43:49;;;;;;;8.45;6.18;;;;;;;21.23;46.96;95316.84;4985670;28;20304;-66
2023/05/07 04:46:16;;;;;;;7.75;7.03;;;;;;;22.36;43.66;95313.66;4988978;28;20261;-65
2023/05/07 04:48:44;;;;;;;7.75;6.00;;;;;;;23.48;41.16;95316.97;4986307;28;20210;-66
2023/05/07 04:51:10;;;;;;;8.77;7.28;;;;;;;23.57;40.59;95316.25;4985226;28;20326;-66
2023/05/07 04:53:38;;;;;;;7.95;7.15;;;;;;;23.31;40.83;95313.13;4986343;28;20274;-67
2023/05/07 04:56:05;;;;;;;7.78;6.97;;;;;;;22.65;42.08;95314.84;4985835;28;20295;-66
2023/05/07 04:58:32;;;;;;;10.35;7.70;;;;;;;21.93;43.75;95316.03;4991068;28;20207;-66
2023/05/07 05:00:59;;;;;;;9.48;6.45;;;;;;;21.32;45.05;95312.75;4987245;28;20235;-65
2023/05/07 05:03:25;;;;;;;7.78;6.72;;;;;;;21.15;45.74;95313.09;4984806;28;20207;-65
2023/05/07 05:05:53;;;;;;;8.70;7.82;;;;;;;21.03;46.29;95319.97;4983859;28;20207;-66
2023/05/07 05:08:20;;;;;;;8.23;7.43;;;;;;;20.80;46.82;95318.97;4984849;28;20476;-67
2023/05/07 05:10:48;;;;;;;9.88;7.60;;;;;;;20.64;47.28;95319.22;4985105;28;20795;-66
2023/05/07 05:13:15;;;;;;;8.68;7.97;;;;;;;20.90;47.17;95325.16;4983140;28;20349;-66
2023/05/07 05:15:41;;;;;;;7.70;6.88;;;;;;;21.61;45.42;95318.41;4985287;28;20306;-65
2023/05/07 05:18:08;;;;;;;7.57;7.07;;;;;;;21.75;44.83;95307.88;4983389;28;20786;-65
2023/05/07 05:20:35;;;;;;;7.95;7.32;;;;;;;21.11;46.61;95312.50;4985539;28;20330;-66
2023/05/07 05:23:03;;;;;;;9.32;8.27;;;;;;;20.69;47.84;95312.00;4983914;28;23185;-66
2023/05/07 05:25:30;;;;;;;10.98;9.98;;;;;;;20.62;48.50;95312.50;4986368;28;20204;-68
2023/05/07 05:27:57;;;;;;;9.48;8.70;;;;;;;20.57;48.55;95314.59;4983862;28;20204;-65
2023/05/07 05:30:23;;;;;;;11.20;8.50;;;;;;;20.62;48.66;95317.69;4984341;28;20362;-66
2023/05/07 05:32:50;;;;;;;9.65;8.82;;;;;;;20.71;48.64;95322.22;4986267;28;20749;-65
2023/05/07 05:35:17;;;;;;;14.10;10.07;;;;;;;20.84;48.58;95314.44;4993209;28;20513;-66
2023/05/07 05:37:44;;;;;;;12.07;10.75;;;;;;;21.15;47.84;95313.09;4989319;28;20298;-66
2023/05/07 05:40:13;;;;;;;10.00;9.10;;;;;;;21.64;46.60;95316.41;4990316;28;20293;-66
2023/05/07 05:42:39;;;;;;;11.90;9.88;;;;;;;22.03;45.96;95310.06;4990945;28;20241;-67
2023/05/07 05:45:07;;;;;;;11.52;9.35;;;;;;;22.60;44.91;95313.56;4985655;28;20208;-66
2023/05/07 05:47:34;;;;;;;14.88;9.18;;;;;;;23.66;43.14;95322.47;4992926;28;20199;-67
2023/05/07 05:50:01;;;;;;;8.88;8.02;;;;;;;24.69;41.01;95313.00;4989009;28;20311;-66
2023/05/07 05:52:27;;;;;;;10.95;7.93;;;;;;;26.31;37.28;95305.53;4984828;28;20341;-67
2023/05/07 05:54:54;;;;;;;9.35;8.65;;;;;;;28.57;33.19;95300.16;4987843;28;20712;-66
2023/05/07 05:57:22;;;;;;;9.10;8.02;;;;;;;30.74;29.65;95297.22;4984581;28;20659;-66
2023/05/07 05:59:49;;;;;;;8.27;7.50;;;;;;;33.59;26.47;95302.69;4983737;28;20319;-66
2023/05/07 06:02:16;;;;;;;8.38;7.28;;;;;;;35.98;22.90;95283.63;4984271;28;20386;-67
2023/05/07 06:04:42;;;;;;;9.63;7.82;;;;;;;38.27;21.46;95298.13;4984190;28;20261;-67
2023/05/07 06:07:09;;;;;;;7.85;7.30;;;;;;;40.03;19.68;95297.38;4986650;28;20290;-68
2023/05/07 06:09:36;;;;;;;8.40;7.63;;;;;;;41.34;18.47;95290.72;4984022;28;20225;-69
2023/05/07 06:12:03;;;;;;;10.52;8.32;;;;;;;42.39;17.28;95290.19;4982124;28;20235;-68
2023/05/07 06:14:31;;;;;;;9.77;8.95;;;;;;;42.73;16.66;95283.78;4984670;28;20294;-68
2023/05/07 06:16:58;;;;;;;8.70;7.95;;;;;;;42.56;16.75;95292.91;4983931;28;20258;-70
2023/05/07 06:19:26;;;;;;;8.93;8.20;;;;;;;42.75;16.87;95287.03;4983690;28;20291;-68
2023/05/07 06:21:53;;;;;;;8.30;7.70;;;;;;;43.27;16.07;95286.69;4983864;28;20362;-68
2023/05/07 06:24:19;;;;;;;9.52;8.65;;;;;;;43.40;16.12;95282.78;4983468;28;20301;-69
2023/05/07 06:26:46;;;;;;;8.65;8.00;;;;;;;44.18;15.23;95281.44;4985235;28;20208;-69
2023/05/07 06:29:13;;;;;;;8.73;8.23;;;;;;;44.47;14.97;95291.88;4984336;28;20211;-69
2023/05/07 06:31:41;;;;;;;8.60;7.65;;;;;;;45.13;14.73;95276.16;4986275;28;20351;-70
2023/05/07 06:34:08;;;;;;;9.20;8.60;;;;;;;44.61;14.43;95269.69;4983767;28;20578;-69
2023/05/07 06:36:35;;;;;;;8.10;7.50;;;;;;;43.68;14.97;95274.56;4983526;28;20338;-68
2023/05/07 06:39:01;;;;;;;8.55;7.85;;;;;;;43.85;15.06;95265.59;4983694;28;20606;-69
2023/05/07 06:41:28;;;;;;;9.18;8.25;;;;;;;44.90;14.21;95261.31;4984930;28;20880;-68
2023/05/07 06:43:55;;;;;;;7.95;7.40;;;;;;;44.56;14.25;95258.13;4982628;28;20258;-68
2023/05/07 06:46:22;;;;;;;9.05;8.35;;;;;;;44.14;15.01;95258.91;4984224;28;20766;-69
2023/05/07 06:48:50;;;;;;;9.23;8.40;;;;;;;44.61;14.40;95260.84;4983233;28;20298;-69
2023/05/07 06:51:16;;;;;;;10.48;9.55;;;;;;;45.38;13.89;95249.41;4983539;28;20239;-68
2023/05/07 06:53:43;;;;;;;8.52;7.93;;;;;;;46.18;13.74;95252.50;4983589;28;20299;-69
2023/05/07 06:56:10;;;;;;;8.98;8.23;;;;;;;47.26;13.08;95243.94;4981490;28;20456;-69
2023/05/07 06:58:37;;;;;;;9.13;8.38;;;;;;;47.79;12.83;95241.47;4984266;28;20239;-69
2023/05/07 07:01:04;;;;;;;8.45;7.85;;;;;;;48.45;12.49;95241.75;4984204;28;20331;-68
2023/05/07 07:03:31;;;;;;;7.50;7.00;;;;;;;48.39;12.27;95251.78;4982204;28;20310;-69
2023/05/07 07:05:59;;;;;;;8.45;7.75;;;;;;;47.90;12.49;95251.09;4984718;28;20375;-69
2023/05/07 07:08:26;;;;;;;8.68;7.88;;;;;;;47.58;12.71;95247.00;4983646;28;20350;-70
2023/05/07 07:10:52;;;;;;;9.23;8.63;;;;;;;47.54;12.91;95247.81;4982313;28;20767;-69
2023/05/07 07:13:19;;;;;;;10.50;9.65;;;;;;;47.56;12.83;95241.06;4981582;28;20357;-70
2023/05/07 07:15:46;;;;;;;8.93;8.23;;;;;;;47.53;12.72;95236.25;4984668;28;20204;-70
2023/05/07 07:18:12;;;;;;;10.50;9.50;;;;;;;47.89;12.47;95238.72;4982597;28;20668;-70
2023/05/07 07:20:39;;;;;;;13.93;12.63;;;;;;;48.28;12.23;95242.16;4984270;28;20310;-71
2023/05/07 07:23:07;;;;;;;9.50;8.88;;;;;;;48.15;12.42;95232.06;4980394;28;20262;-69
2023/05/07 07:25:34;;;;;;;8.98;8.27;;;;;;;48.51;12.29;95239.84;4980508;28;20657;-68
2023/05/07 07:28:01;;;;;;;12.43;11.35;;;;;;;48.34;12.23;95232.94;4982185;28;20212;-69
2023/05/07 07:30:27;;;;;;;11.95;9.30;;;;;;;48.46;12.10;95234.47;4986750;28;20247;-68
2023/05/07 07:32:54;;;;;;;9.60;8.77;;;;;;;48.53;12.46;95235.75;4986516;28;20612;-70
2023/05/07 07:35:21;;;;;;;8.60;7.85;;;;;;;47.79;12.32;95233.41;4985742;28;20199;-68
2023/05/07 07:37:49;;;;;;;8.38;7.68;;;;;;;47.99;12.65;95241.34;4987537;28;20287;-69
2023/05/07 07:40:17;;;;;;;8.68;7.90;;;;;;;48.77;12.09;95249.22;4987444;28;20280;-69
2023/05/07 07:42:44;;;;;;;8.85;8.05;;;;;;;48.38;12.15;95241.28;4986291;28;20299;-69
2023/05/07 07:45:11;;;;;;;9.13;7.90;;;;;;;47.27;12.62;95243.63;4987030;28;20299;-69
2023/05/07 07:47:38;;;;;;;9.48;7.88;;;;;;;47.47;12.67;95237.38;4985971;28;20768;-68
2023/05/07 07:50:05;;;;;;;8.15;7.03;;;;;;;47.75;12.47;95249.31;4986100;28;23372;-69
2023/05/07 07:52:32;;;;;;;9.85;6.90;;;;;;;46.73;12.59;95251.66;4985617;28;20290;-68
2023/05/07 07:54:59;;;;;;;8.38;7.68;;;;;;;45.91;13.53;95242.00;4985012;28;20330;-69
2023/05/07 07:57:27;;;;;;;8.60;7.53;;;;;;;45.78;13.29;95247.94;4986053;28;20227;-70
2023/05/07 07:59:53;;;;;;;8.40;7.85;;;;;;;46.85;12.63;95245.97;4986116;28;20351;-68
2023/05/07 08:02:20;;;;;;;9.60;7.50;;;;;;;46.76;12.12;95237.66;4985715;28;20369;-70
2023/05/07 08:04:47;;;;;;;18.70;17.00;;;;;;;46.56;13.28;95232.31;4986501;28;20254;-68
2023/05/07 08:07:13;;;;;;;17.15;15.32;;;;;;;46.95;12.48;95235.97;4986742;28;20315;-69
2023/05/07 08:09:41;;;;;;;7.47;6.90;;;;;;;47.71;12.79;95238.28;4987846;28;20334;-68
2023/05/07 08:12:08;;;;;;;8.77;7.88;;;;;;;47.21;12.38;95227.81;4987033;28;20207;-67
2023/05/07 08:14:37;;;;;;;7.75;7.28;;;;;;;47.14;12.43;95235.38;4985427;28;20331;-68
2023/05/07 08:17:03;;;;;;;10.25;7.20;;;;;;;47.23;12.67;95231.03;4986404;28;20207;-70
2023/05/07 08:19:30;;;;;;;7.30;6.70;;;;;;;47.93;12.64;95229.00;4987097;28;20317;-70
2023/05/07 08:21:57;;;;;;;7.50;6.93;;;;;;;48.09;11.89;95233.16;4986872;28;20309;-69
2023/05/07 08:24:23;;;;;;;11.10;6.72;;;;;;;47.83;11.93;95223.69;4985884;28;20323;-68
2023/05/07 08:26:50;;;;;;;6.75;6.35;;;;;;;47.89;12.19;95222.56;4985393;28;20813;-69
2023/05/07 08:29:17;;;;;;;6.65;6.15;;;;;;;48.56;12.01;95220.88;4984746;28;20691;-68
2023/05/07 08:31:45;;;;;;;6.05;5.55;;;;;;;48.26;11.66;95228.16;4986419;28;20887;-68
2023/05/07 08:34:11;;;;;;;5.95;5.50;;;;;;;49.28;11.28;95225.16;4985264;28;20208;-70
2023/05/07 08:36:38;;;;;;;5.65;5.18;;;;;;;49.06;11.22;95217.59;4985029;28;20208;-68
2023/05/07 08:39:05;;;;;;;5.25;4.95;;;;;;;48.30;11.32;95229.22;4985364;28;20689;-68
2023/05/07 08:41:32;;;;;;;6.32;5.85;;;;;;;47.48;11.87;95212.06;4987470;28;20577;-68
2023/05/07 08:43:59;;;;;;;7.13;6.63;;;;;;;46.27;12.07;95216.75;4987183;28;20338;-67
2023/05/07 08:46:31;;;;;;;5.38;4.88;;;;;;;46.68;12.06;95214.03;4984831;28;20210;-67
2023/05/07 08:49:00;;;;;;;7.30;4.88;;;;;;;47.26;12.11;95211.66;4986442;28;20204;-68
2023/05/07 08:51:27;;;;;;;5.20;4.90;;;;;;;48.17;11.65;95213.72;4984808;28;20224;-68
2023/05/07 08:53:53;;;;;;;4.68;4.18;;;;;;;48.59;11.28;95199.53;4988224;28;20606;-68
2023/05/07 08:56:20;;;;;;;5.07;4.68;;;;;;;48.89;11.19;95193.00;4984961;28;20685;-68
2023/05/07 08:58:48;;;;;;;6.22;5.43;;;;;;;47.28;11.85;95201.38;4985285;28;20218;-67
2023/05/07 09:01:16;;;;;;;4.45;4.20;;;;;;;46.37;12.69;95199.81;4985306;28;20354;-68
2023/05/07 09:03:45;;;;;;;6.10;5.78;;;;;;;46.05;12.38;95200.09;4985188;28;20233;-70
2023/05/07 09:06:13;;;;;;;5.43;5.13;;;;;;;43.34;13.91;95198.16;4983377;28;20213;-68
2023/05/07 09:08:40;;;;;;;9.07;5.57;;;;;;;42.04;14.64;95191.69;4982658;28;20365;-67
2023/05/07 09:11:07;;;;;;;5.30;4.78;;;;;;;41.11;16.10;95192.94;4982245;28;20293;-66
2023/05/07 09:13:33;;;;;;;6.50;4.72;;;;;;;38.94;16.84;95184.06;4983063;28;20302;-69
2023/05/07 09:16:10;;;;;;;5.47;5.07;;;;;;;37.02;18.75;95179.56;4985097;28;20705;-67
2023/05/07 09:18:41;;;;;;;4.63;4.32;;;;;;;34.91;20.16;95185.75;4983832;28;20214;-68
2023/05/07 09:21:11;;;;;;;6.35;5.75;;;;;;;33.96;20.79;95180.34;4985854;28;20326;-68
2023/05/07 09:23:39;;;;;;;6.00;5.35;;;;;;;33.38;21.77;95184.94;4984735;28;20294;-67
2023/05/07 09:26:08;;;;;;;4.68;4.20;;;;;;;33.32;21.93;95180.41;4983548;28;20731;-67
2023/05/07 09:28:38;;;;;;;4.32;3.92;;;;;;;33.70;22.24;95176.47;4982492;28;20353;-67
2023/05/07 09:31:05;;;;;;;4.72;4.32;;;;;;;33.93;22.07;95173.63;4983539;28;20291;-67
2023/05/07 09:33:32;;;;;;;5.35;4.20;;;;;;;33.86;21.66;95174.63;4985477;28;20696;-68
2023/05/07 09:35:58;;;;;;;4.80;4.25;;;;;;;33.32;22.71;95167.25;4987380;28;20294;-68
2023/05/07 09:38:28;;;;;;;4.10;3.80;;;;;;;32.82;23.07;95176.84;4983855;28;20993;-67
2023/05/07 09:41:05;;;;;;;6.80;3.90;;;;;;;31.97;23.83;95171.19;4982979;28;20313;-69
2023/05/07 09:43:34;;;;;;;3.58;3.38;;;;;;;31.14;24.84;95168.63;4985753;28;20775;-67
2023/05/07 09:46:03;;;;;;;6.55;4.03;;;;;;;30.23;25.46;95167.34;4987106;28;20217;-67
2023/05/07 09:48:31;;;;;;;5.85;4.18;;;;;;;29.34;26.39;95165.66;4985099;28;20752;-68
2023/05/07 09:51:02;;;;;;;5.70;4.22;;;;;;;28.90;27.17;95165.13;4985009;28;20390;-66
2023/05/07 09:53:31;;;;;;;4.22;3.85;;;;;;;28.46;27.43;95166.28;4985561;28;20297;-66
2023/05/07 09:55:59;;;;;;;3.65;3.13;;;;;;;28.11;28.22;95162.84;4983924;28;20611;-66
2023/05/07 09:58:29;;;;;;;5.78;3.75;;;;;;;28.15;29.25;95165.97;4983898;28;20214;-67
2023/05/07 10:00:57;;;;;;;7.43;4.22;;;;;;;28.14;28.89;95159.91;4984351;28;20318;-67
2023/05/07 10:03:28;;;;;;;3.45;3.15;;;;;;;27.99;28.91;95154.44;4984387;28;20417;-67
2023/05/07 10:05:55;;;;;;;3.80;3.47;;;;;;;28.11;28.72;95152.38;4985526;28;20254;-68
2023/05/07 10:08:22;;;;;;;6.82;6.22;;;;;;;27.90;28.64;95160.59;4984488;28;20900;-66
2023/05/07 10:10:50;;;;;;;8.77;7.45;;;;;;;27.95;28.69;95157.53;4984097;28;20330;-66
2023/05/07 10:13:18;;;;;;;24.00;20.02;;;;;;;27.98;28.15;95157.19;4986836;28;20821;-66
2023/05/07 10:15:46;;;;;;;7.85;6.28;;;;;;;27.88;27.79;95149.50;4985958;28;20608;-68
2023/05/07 10:18:14;;;;;;;5.20;4.80;;;;;;;27.79;27.44;95155.63;4984284;28;20207;-66
2023/05/07 10:20:43;;;;;;;4.10;3.78;;;;;;;27.52;28.16;95151.34;4983672;28;20758;-68
2023/05/07 10:23:15;;;;;;;3.90;3.70;;;;;;;27.35;28.22;95152.19;4979117;28;20365;-67
2023/05/07 10:25:42;;;;;;;7.72;2.78;;;;;;;27.19;28.05;95144.25;4983329;28;20298;-67
2023/05/07 10:28:11;;;;;;;4.00;3.20;;;;;;;26.97;28.28;95135.91;4983971;28;20689;-67
2023/05/07 10:30:49;;;;;;;3.95;3.15;;;;;;;26.96;28.67;95136.06;4981476;28;20298;-66
2023/05/07 10:33:24;;;;;;;3.03;2.67;;;;;;;26.95;28.17;95132.63;4981948;28;20625;-69
2023/05/07 10:35:51;;;;;;;3.47;3.28;;;;;;;26.79;27.95;95127.22;4984707;28;20325;-69
2023/05/07 10:38:18;;;;;;;3.25;3.05;;;;;;;26.70;28.14;95125.53;4985853;28;20314;-69
2023/05/07 10:40:45;;;;;;;4.88;4.10;;;;;;;26.69;28.54;95121.28;4984750;28;20271;-66
2023/05/07 10:43:12;;;;;;;7.15;4.82;;;;;;;26.62;28.49;95122.81;4983810;28;20286;-74
2023/05/07 10:45:39;;;;;;;7.13;3.80;;;;;;;26.74;28.41;95119.00;4985786;28;20381;-75
2023/05/07 10:48:10;;;;;;;6.32;5.82;;;;;;;26.90;28.91;95116.56;4984009;28;20298;-72
2023/05/07 10:50:40;;;;;;;4.25;3.95;;;;;;;27.06;28.59;95116.75;4984391;28;20220;-69
2023/05/07 10:53:29;;;;;;;5.18;4.03;;;;;;;27.05;28.11;95119.50;4987768;28;20276;-69
2023/05/07 10:56:35;;;;;;;7.70;6.90;;;;;;;26.98;28.81;95115.84;4984843;28;20208;-71
2023/05/07 10:59:41;;;;;;;8.05;5.35;;;;;;;26.76;28.30;95114.47;4986131;28;20337;-74
2023/05/07 11:02:09;;;;;;;5.15;4.82;;;;;;;26.52;29.31;95119.44;4983106;28;20380;-72
2023/05/07 11:04:37;;;;;;;4.03;3.67;;;;;;;26.16;29.40;95116.75;4984118;28;20289;-70
2023/05/07 11:07:25;;;;;;;4.30;3.88;;;;;;;25.89;29.14;95116.72;4984695;28;20211;-73
2023/05/07 11:10:04;;;;;;;3.03;2.70;;;;;;;25.63;28.93;95112.16;4982902;28;20215;-69
2023/05/07 11:12:51;;;;;;;5.88;3.63;;;;;;;25.25;30.49;95114.81;4983601;28;20499;-72
2023/05/07 11:15:41;;;;;;;3.95;3.72;;;;;;;25.34;30.45;95112.19;4982439;28;20203;-69
2023/05/07 11:18:08;;;;;;;3.90;3.60;;;;;;;25.56;29.65;95108.44;4984558;28;20203;-68
2023/05/07 11:20:49;;;;;;;4.70;4.40;;;;;;;25.62;29.84;95104.47;4984254;28;20297;-70
2023/05/07 11:23:58;;;;;;;3.92;3.63;;;;;;;25.47;29.93;95104.09;4983384;28;20231;-73
2023/05/07 11:26:26;;;;;;;7.93;2.90;;;;;;;25.50;30.18;95093.38;4982940;28;20211;-71
2023/05/07 11:28:53;;;;;;;3.30;3.10;;;;;;;25.57;30.39;95098.84;4984666;28;20314;-66
2023/05/07 11:31:25;;;;;;;6.03;4.13;;;;;;;25.72;29.73;95095.72;4984272;28;20298;-65
2023/05/07 11:33:53;;;;;;;4.32;3.47;;;;;;;25.79;28.69;95095.94;4984107;28;20210;-73
2023/05/07 11:36:20;;;;;;;3.08;2.83;;;;;;;25.73;28.29;95092.13;4982938;28;20330;-69